createdAt,value
2018-03-14T00:01:47.842Z,55.90
2018-03-14T00:04:17.454Z,56.00
2018-03-14T00:06:45.633Z,55.90
2018-03-14T00:09:13.799Z,55.80
2018-03-14T00:11:42.790Z,55.80
2018-03-14T00:14:11.686Z,56.10
2018-03-14T00:16:40.685Z,55.80
2018-03-14T00:19:08.847Z,55.70
2018-03-14T00:21:37.741Z,55.70
2018-03-14T00:24:06.627Z,55.70
2018-03-14T00:26:34.806Z,55.70
2018-03-14T00:29:03.088Z,55.80
2018-03-14T00:31:31.365Z,55.70
2018-03-14T00:34:00.356Z,55.90
2018-03-14T00:36:29.250Z,55.90
2018-03-14T00:38:57.415Z,55.90
2018-03-14T00:41:26.407Z,55.90
2018-03-14T00:43:55.304Z,55.90
2018-03-14T00:46:23.568Z,55.90
2018-03-14T00:48:51.742Z,55.80
2018-03-14T00:51:20.881Z,55.90
2018-03-14T00:53:49.124Z,56.40
2018-03-14T00:56:18.003Z,55.90
2018-03-14T00:58:46.893Z,55.80
2018-03-14T01:01:17.832Z,55.80
2018-03-14T01:03:46.007Z,55.80
2018-03-14T01:06:14.898Z,55.80
2018-03-14T01:08:44.105Z,55.80
2018-03-14T01:11:12.989Z,55.80
2018-03-14T01:13:42.487Z,55.90
2018-03-14T01:16:10.665Z,55.90
2018-03-14T01:18:39.658Z,55.90
2018-03-14T01:21:07.829Z,55.90
2018-03-14T01:23:35.899Z,55.90
2018-03-14T01:26:05.005Z,56.90
2018-03-14T01:28:33.883Z,56.90
2018-03-14T01:31:02.774Z,56.90
2018-03-14T01:33:31.873Z,57.00
2018-03-14T01:36:00.758Z,57.00
2018-03-14T01:38:29.763Z,57.00
2018-03-14T01:40:57.925Z,56.90
2018-03-14T01:43:26.931Z,57.30
2018-03-14T01:45:55.813Z,57.10
2018-03-14T01:48:23.981Z,57.10
2018-03-14T01:50:53.152Z,57.10
2018-03-14T01:53:29.345Z,57.10
2018-03-14T01:55:58.234Z,57.10
2018-03-14T01:58:27.121Z,57.10
2018-03-14T02:00:55.295Z,57.10
2018-03-14T02:03:23.472Z,57.10
2018-03-14T02:05:52.362Z,57.20
2018-03-14T02:08:20.532Z,57.20
2018-03-14T02:10:48.711Z,57.20
2018-03-14T02:13:17.595Z,57.30
2018-03-14T02:15:46.489Z,57.60
2018-03-14T02:18:14.661Z,57.30
2018-03-14T02:20:42.949Z,57.30
2018-03-14T02:23:11.114Z,57.30
2018-03-14T02:25:40.104Z,57.40
2018-03-14T02:28:08.279Z,57.40
2018-03-14T02:30:37.170Z,57.40
2018-03-14T02:33:06.170Z,57.40
2018-03-14T02:35:34.447Z,57.40
2018-03-14T02:38:02.722Z,57.30
2018-03-14T02:40:30.998Z,57.30
2018-03-14T02:42:59.876Z,57.40
2018-03-14T02:45:28.874Z,57.40
2018-03-14T02:47:57.046Z,57.40
2018-03-14T02:50:25.217Z,57.50
2018-03-14T02:52:53.390Z,58.00
2018-03-14T02:55:21.676Z,57.50
2018-03-14T02:57:49.952Z,57.50
2018-03-14T03:00:18.115Z,57.50
2018-03-14T03:02:46.402Z,57.50
2018-03-14T03:05:14.567Z,57.60
2018-03-14T03:07:44.174Z,57.60
2018-03-14T03:10:12.863Z,57.60
2018-03-14T03:12:41.145Z,57.60
2018-03-14T03:15:09.419Z,57.60
2018-03-14T03:17:37.696Z,57.70
2018-03-14T03:20:06.372Z,58.20
2018-03-14T03:22:34.657Z,57.70
2018-03-14T03:25:02.822Z,57.70
2018-03-14T03:27:31.107Z,57.70
2018-03-14T03:29:59.383Z,57.70
2018-03-14T03:32:28.363Z,57.80
2018-03-14T03:34:56.437Z,57.80
2018-03-14T03:37:24.511Z,57.80
2018-03-14T03:39:52.849Z,57.80
2018-03-14T03:42:20.958Z,57.80
2018-03-14T03:44:49.244Z,57.90
2018-03-14T03:47:18.121Z,58.40
2018-03-14T03:49:46.362Z,57.80
2018-03-14T03:52:14.586Z,57.70
2018-03-14T03:54:42.852Z,57.80
2018-03-14T03:57:11.021Z,57.70
2018-03-14T03:59:39.204Z,57.60
2018-03-14T04:02:07.368Z,57.60
2018-03-14T04:04:35.544Z,57.70
2018-03-14T04:07:03.621Z,57.70
2018-03-14T04:09:31.789Z,57.80
2018-03-14T04:11:59.959Z,57.90
2018-03-14T04:14:28.131Z,57.80
2018-03-14T04:16:56.312Z,57.90
2018-03-14T04:19:24.478Z,58.00
2018-03-14T04:21:52.551Z,57.90
2018-03-14T04:24:20.723Z,58.00
2018-03-14T04:26:48.899Z,58.10
2018-03-14T04:29:17.071Z,58.10
2018-03-14T04:31:45.245Z,58.10
2018-03-14T04:34:13.535Z,58.20
2018-03-14T04:36:41.697Z,58.20
2018-03-14T04:39:09.878Z,58.30
2018-03-14T04:41:38.760Z,58.30
2018-03-14T04:44:06.936Z,58.30
2018-03-14T04:46:35.109Z,58.40
2018-03-14T04:49:03.383Z,58.30
2018-03-14T04:51:31.668Z,58.40
2018-03-14T04:53:59.836Z,58.50
2018-03-14T04:56:28.621Z,58.60
2018-03-14T04:58:56.906Z,58.50
2018-03-14T05:01:25.067Z,58.50
2018-03-14T05:03:53.241Z,58.50
2018-03-14T05:06:21.312Z,58.60
2018-03-14T05:08:49.490Z,58.70
2018-03-14T05:11:17.777Z,58.70
2018-03-14T05:13:46.768Z,59.00
2018-03-14T05:16:15.042Z,58.70
2018-03-14T05:18:43.206Z,58.80
2018-03-14T05:21:11.482Z,58.80
2018-03-14T05:23:39.653Z,58.80
2018-03-14T05:26:07.729Z,58.80
2018-03-14T05:28:35.903Z,58.90
2018-03-14T05:31:04.071Z,58.90
2018-03-14T05:33:32.461Z,58.90
2018-03-14T05:36:00.623Z,59.00
2018-03-14T05:38:28.809Z,58.80
2018-03-14T05:41:03.842Z,59.10
2018-03-14T05:43:32.010Z,59.10
2018-03-14T05:46:00.266Z,59.10
2018-03-14T05:48:28.458Z,59.10
2018-03-14T05:50:57.655Z,59.20
2018-03-14T05:53:25.939Z,59.20
2018-03-14T05:55:54.728Z,59.20
2018-03-14T05:58:22.791Z,59.40
2018-03-14T06:00:52.396Z,59.40
2018-03-14T06:03:20.569Z,59.40
2018-03-14T06:05:48.744Z,59.40
2018-03-14T06:08:16.919Z,59.30
2018-03-14T06:10:45.092Z,59.40
2018-03-14T06:13:13.266Z,59.40
2018-03-14T06:15:41.437Z,59.30
2018-03-14T06:18:09.915Z,59.30
2018-03-14T06:20:38.094Z,59.20
2018-03-14T06:23:06.262Z,59.10
2018-03-14T06:25:34.336Z,59.10
2018-03-14T06:28:02.621Z,59.10
2018-03-14T06:30:30.785Z,59.10
2018-03-14T06:32:59.072Z,59.10
2018-03-14T06:35:27.334Z,59.00
2018-03-14T06:37:55.509Z,59.00
2018-03-14T06:40:23.439Z,59.50
2018-03-14T06:42:52.378Z,58.90
2018-03-14T06:45:20.544Z,58.80
2018-03-14T06:47:48.725Z,58.80
2018-03-14T06:50:16.888Z,58.60
2018-03-14T06:52:45.175Z,58.70
2018-03-14T06:55:13.132Z,58.50
2018-03-14T06:57:41.317Z,58.50
2018-03-14T07:00:20.932Z,58.40
2018-03-14T07:02:49.121Z,58.30
2018-03-14T07:05:29.248Z,58.20
2018-03-14T07:07:57.461Z,58.20
2018-03-14T07:10:26.451Z,57.80
2018-03-14T07:12:54.619Z,57.20
2018-03-14T07:15:22.794Z,57.10
2018-03-14T07:17:50.966Z,57.00
2018-03-14T07:20:19.140Z,57.00
2018-03-14T07:22:47.316Z,56.90
2018-03-14T07:25:15.598Z,56.80
2018-03-14T07:27:43.766Z,56.80
2018-03-14T07:30:12.046Z,56.80
2018-03-14T07:32:40.542Z,57.40
2018-03-14T07:35:09.508Z,56.50
2018-03-14T07:37:37.693Z,56.50
2018-03-14T07:40:05.859Z,56.40
2018-03-14T07:42:34.142Z,55.90
2018-03-14T07:45:04.748Z,56.20
2018-03-14T07:47:33.049Z,56.80
2018-03-14T07:50:01.326Z,56.00
2018-03-14T07:52:29.601Z,55.80
2018-03-14T07:54:57.877Z,56.10
2018-03-14T07:57:26.044Z,55.70
2018-03-14T07:59:54.216Z,55.40
2018-03-14T08:02:23.220Z,55.20
2018-03-14T08:04:51.379Z,55.00
2018-03-14T08:07:19.668Z,55.00
2018-03-14T08:09:48.033Z,54.80
2018-03-14T08:12:16.424Z,54.70
2018-03-14T08:14:44.597Z,54.40
2018-03-14T08:17:13.704Z,54.50
2018-03-14T08:19:41.853Z,54.80
2018-03-14T08:22:10.055Z,54.20
2018-03-14T08:24:39.138Z,53.90
2018-03-14T08:27:07.913Z,53.80
2018-03-14T08:29:35.841Z,53.80
2018-03-14T08:32:03.818Z,53.70
2018-03-14T08:34:31.767Z,53.40
2018-03-14T08:36:59.702Z,53.40
2018-03-14T08:39:28.412Z,53.20
2018-03-14T08:41:56.429Z,53.10
2018-03-14T08:44:24.469Z,53.00
2018-03-14T08:46:52.397Z,53.10
2018-03-14T08:49:21.279Z,53.10
2018-03-14T08:51:50.260Z,53.30
2018-03-14T08:54:18.433Z,53.20
2018-03-14T08:56:46.815Z,53.20
2018-03-14T08:59:14.838Z,53.20
2018-03-14T09:01:42.770Z,53.00
2018-03-14T09:04:11.583Z,52.80
2018-03-14T09:06:40.329Z,52.80
2018-03-14T09:09:18.138Z,52.80
2018-03-14T09:11:46.114Z,52.80
2018-03-14T09:14:14.834Z,53.00
2018-03-14T09:16:42.781Z,52.80
2018-03-14T09:19:13.790Z,53.10
2018-03-14T09:21:42.063Z,53.10
2018-03-14T09:24:10.342Z,53.20
2018-03-14T09:26:38.620Z,53.30
2018-03-14T09:29:06.927Z,53.40
2018-03-14T09:31:35.384Z,53.50
2018-03-14T09:34:03.426Z,53.30
2018-03-14T09:36:40.400Z,53.20
2018-03-14T09:39:09.130Z,53.40
2018-03-14T09:41:37.938Z,53.30
2018-03-14T09:44:05.881Z,53.20
2018-03-14T09:46:33.898Z,53.20
2018-03-14T09:49:01.853Z,53.00
2018-03-14T09:51:29.850Z,52.90
2018-03-14T09:53:57.820Z,52.90
2018-03-14T09:56:25.857Z,52.70
2018-03-14T09:58:53.809Z,52.30
2018-03-14T10:01:22.622Z,52.10
2018-03-14T10:03:50.610Z,52.00
2018-03-14T10:06:18.595Z,52.00
2018-03-14T10:08:46.650Z,51.80
2018-03-14T10:11:14.635Z,51.60
2018-03-14T10:13:43.367Z,51.10
2018-03-14T10:16:12.131Z,50.60
2018-03-14T10:18:40.928Z,50.30
2018-03-14T10:21:09.648Z,49.90
2018-03-14T10:23:37.581Z,49.80
2018-03-14T10:26:06.302Z,49.00
2018-03-14T10:28:34.310Z,49.00
2018-03-14T10:31:02.326Z,48.50
2018-03-14T10:33:31.011Z,48.10
2018-03-14T10:35:59.829Z,47.80
2018-03-14T10:38:27.836Z,47.80
2018-03-14T10:40:55.851Z,47.40
2018-03-14T10:43:23.809Z,47.10
2018-03-14T10:45:51.813Z,47.00
2018-03-14T10:48:19.841Z,47.40
2018-03-14T10:50:48.546Z,46.40
2018-03-14T10:53:16.535Z,46.40
2018-03-14T10:55:44.557Z,46.10
2018-03-14T10:58:13.289Z,45.40
2018-03-14T11:00:46.777Z,45.30
2018-03-14T11:03:18.650Z,45.00
2018-03-14T11:05:46.673Z,44.70
2018-03-14T11:08:15.370Z,43.80
2018-03-14T11:10:44.159Z,43.80
2018-03-14T11:13:12.885Z,43.50
2018-03-14T11:15:41.073Z,43.50
2018-03-14T11:18:09.126Z,43.30
2018-03-14T11:20:37.144Z,43.00
2018-03-14T11:23:05.100Z,42.50
2018-03-14T11:25:33.192Z,41.90
2018-03-14T11:28:01.963Z,41.10
2018-03-14T11:30:29.906Z,41.10
2018-03-14T11:32:57.930Z,40.70
2018-03-14T11:35:25.982Z,40.20
2018-03-14T11:37:54.704Z,39.70
2018-03-14T11:40:22.876Z,39.60
2018-03-14T11:42:52.145Z,39.30
2018-03-14T11:45:21.124Z,38.30
2018-03-14T11:47:49.288Z,38.20
2018-03-14T11:50:17.664Z,37.90
2018-03-14T11:52:46.110Z,37.50
2018-03-14T11:55:14.678Z,37.10
2018-03-14T11:57:42.860Z,36.80
2018-03-14T12:00:10.799Z,36.50
2018-03-14T12:02:39.527Z,36.20
2018-03-14T12:05:07.461Z,36.10
2018-03-14T12:07:35.432Z,35.90
2018-03-14T12:10:03.378Z,35.30
2018-03-14T12:12:32.252Z,34.50
2018-03-14T12:15:01.040Z,34.40
2018-03-14T12:17:29.317Z,34.20
2018-03-14T12:19:57.487Z,34.00
2018-03-14T12:22:31.422Z,33.50
2018-03-14T12:25:00.171Z,33.00
2018-03-14T12:27:28.137Z,32.90
2018-03-14T12:29:56.431Z,32.90
2018-03-14T12:32:24.483Z,32.70
2018-03-14T12:34:52.556Z,32.50
2018-03-14T12:37:20.585Z,32.10
2018-03-14T12:39:48.738Z,31.70
2018-03-14T12:42:17.716Z,31.20
2018-03-14T12:44:48.114Z,30.80
2018-03-14T12:47:16.846Z,30.80
2018-03-14T12:49:46.394Z,30.70
2018-03-14T12:52:14.806Z,30.70
2018-03-14T12:54:42.981Z,30.50
2018-03-14T12:57:12.142Z,30.00
2018-03-14T12:59:40.519Z,29.90
2018-03-14T13:02:09.325Z,29.90
2018-03-14T13:04:38.319Z,29.50
2018-03-14T13:07:07.114Z,29.30
2018-03-14T13:09:35.876Z,29.50
2018-03-14T13:12:04.695Z,29.50
2018-03-14T13:14:34.184Z,30.00
2018-03-14T13:17:02.988Z,29.60
2018-03-14T13:19:32.974Z,29.60
2018-03-14T13:22:01.742Z,29.50
2018-03-14T13:24:30.580Z,29.40
2018-03-14T13:26:58.791Z,29.50
2018-03-14T13:29:27.815Z,30.00
2018-03-14T13:31:56.046Z,30.00
2018-03-14T13:34:25.538Z,30.80
2018-03-14T13:36:54.534Z,30.70
2018-03-14T13:39:23.376Z,31.10
2018-03-14T13:41:52.061Z,31.60
2018-03-14T13:44:20.832Z,31.70
2018-03-14T13:46:50.081Z,31.80
2018-03-14T13:49:19.086Z,32.00
2018-03-14T13:51:48.077Z,32.10
2018-03-14T13:54:16.916Z,32.00
2018-03-14T13:56:45.622Z,32.70
2018-03-14T13:59:14.481Z,32.40
2018-03-14T14:01:43.306Z,32.80
2018-03-14T14:04:12.085Z,33.20
2018-03-14T14:06:40.801Z,33.40
2018-03-14T14:09:12.690Z,33.70
2018-03-14T14:11:42.277Z,33.70
2018-03-14T14:14:11.029Z,33.70
2018-03-14T14:16:40.060Z,34.20
2018-03-14T14:19:09.024Z,34.30
2018-03-14T14:21:38.729Z,34.20
2018-03-14T14:24:08.589Z,34.20
2018-03-14T14:26:37.574Z,34.50
2018-03-14T14:29:07.101Z,34.50
2018-03-14T14:31:36.062Z,34.40
2018-03-14T14:34:05.428Z,34.60
2018-03-14T14:36:34.505Z,34.60
2018-03-14T14:39:03.446Z,35.10
2018-03-14T14:41:32.252Z,35.20
2018-03-14T14:44:01.946Z,35.30
2018-03-14T14:46:30.936Z,35.90
2018-03-14T14:48:59.532Z,34.90
2018-03-14T14:51:30.087Z,35.50
2018-03-14T14:53:58.874Z,35.50
2018-03-14T14:56:27.897Z,35.80
2018-03-14T14:58:56.793Z,35.80
2018-03-14T15:01:25.477Z,35.80
2018-03-14T15:03:54.250Z,35.70
2018-03-14T15:06:23.137Z,35.80
2018-03-14T15:08:52.075Z,35.90
2018-03-14T15:11:20.971Z,36.20
2018-03-14T15:13:49.550Z,36.20
2018-03-14T15:16:18.431Z,36.00
2018-03-14T15:18:47.281Z,35.60
2018-03-14T15:21:16.165Z,35.50
2018-03-14T15:23:45.087Z,35.20
2018-03-14T15:26:13.278Z,35.30
2018-03-14T15:28:41.445Z,35.60
2018-03-14T15:31:09.623Z,35.70
2018-03-14T15:33:37.907Z,36.10
2018-03-14T15:36:06.183Z,36.50
2018-03-14T15:38:34.346Z,36.90
2018-03-14T15:41:02.631Z,37.10
2018-03-14T15:43:30.910Z,37.10
2018-03-14T15:45:59.069Z,37.10
2018-03-14T15:48:27.246Z,37.20
2018-03-14T15:50:55.530Z,36.60
2018-03-14T15:53:23.698Z,36.50
2018-03-14T15:55:51.981Z,36.60
2018-03-14T15:58:20.145Z,36.80
2018-03-14T16:00:48.321Z,36.90
2018-03-14T16:03:16.492Z,37.20
2018-03-14T16:05:44.777Z,37.50
2018-03-14T16:08:12.941Z,37.60
2018-03-14T16:10:41.112Z,37.80
2018-03-14T16:13:10.719Z,37.90
2018-03-14T16:15:40.331Z,38.10
2018-03-14T16:18:12.447Z,38.10
2018-03-14T16:20:40.654Z,38.20
2018-03-14T16:23:08.953Z,38.10
2018-03-14T16:25:37.435Z,37.90
2018-03-14T16:28:08.221Z,37.90
2018-03-14T16:30:36.547Z,38.00
2018-03-14T16:33:04.719Z,38.10
2018-03-14T16:35:32.882Z,37.90
2018-03-14T16:38:01.055Z,38.30
2018-03-14T16:40:30.868Z,38.40
2018-03-14T16:42:59.157Z,38.40
2018-03-14T16:45:27.320Z,39.10
2018-03-14T16:47:55.604Z,38.20
2018-03-14T16:50:23.767Z,39.00
2018-03-14T16:52:52.773Z,39.20
2018-03-14T16:55:21.764Z,39.50
2018-03-14T16:57:49.928Z,39.50
2018-03-14T17:00:18.820Z,39.80
2018-03-14T17:02:48.424Z,39.90
2018-03-14T17:05:16.596Z,40.00
2018-03-14T17:07:44.979Z,40.10
2018-03-14T17:10:14.213Z,40.50
2018-03-14T17:12:43.074Z,40.40
2018-03-14T17:15:11.955Z,40.90
2018-03-14T17:17:40.956Z,41.10
2018-03-14T17:20:10.653Z,41.30
2018-03-14T17:22:38.829Z,41.30
2018-03-14T17:25:07.007Z,41.50
2018-03-14T17:27:35.895Z,42.00
2018-03-14T17:30:04.270Z,42.00
2018-03-14T17:32:32.447Z,42.20
2018-03-14T17:35:00.520Z,42.30
2018-03-14T17:37:29.613Z,42.60
2018-03-14T17:39:57.895Z,42.70
2018-03-14T17:42:27.186Z,43.10
2018-03-14T17:44:55.257Z,43.10
2018-03-14T17:47:24.159Z,43.30
2018-03-14T17:49:53.042Z,43.70
2018-03-14T17:52:21.212Z,43.70
2018-03-14T17:54:49.499Z,43.90
2018-03-14T17:57:18.491Z,44.70
2018-03-14T17:59:48.304Z,44.20
2018-03-14T18:02:17.284Z,44.60
2018-03-14T18:04:48.234Z,44.30
2018-03-14T18:07:17.333Z,44.80
2018-03-14T18:09:46.216Z,44.50
2018-03-14T18:12:14.387Z,44.50
2018-03-14T18:14:44.813Z,44.70
2018-03-14T18:17:14.015Z,44.70
2018-03-14T18:19:42.207Z,44.70
2018-03-14T18:22:11.177Z,44.90
2018-03-14T18:24:39.452Z,44.80
2018-03-14T18:27:07.626Z,44.80
2018-03-14T18:29:35.796Z,44.90
2018-03-14T18:32:04.082Z,45.00
2018-03-14T18:34:32.965Z,45.00
2018-03-14T18:37:01.353Z,45.00
2018-03-14T18:39:30.433Z,45.10
2018-03-14T18:41:59.324Z,45.20
2018-03-14T18:44:27.635Z,45.10
2018-03-14T18:46:55.888Z,45.20
2018-03-14T18:49:24.883Z,45.50
2018-03-14T18:51:53.878Z,45.00
2018-03-14T18:54:22.038Z,45.50
2018-03-14T18:56:50.221Z,45.60
2018-03-14T18:59:19.274Z,45.80
2018-03-14T19:01:47.591Z,45.60
2018-03-14T19:04:16.681Z,45.80
2018-03-14T19:06:44.859Z,45.80
2018-03-14T19:09:14.158Z,46.20
2018-03-14T19:11:44.062Z,45.80
2018-03-14T19:14:12.323Z,45.90
2018-03-14T19:16:40.409Z,45.90
2018-03-14T19:19:08.585Z,45.80
2018-03-14T19:21:36.757Z,45.90
2018-03-14T19:24:04.935Z,46.00
2018-03-14T19:26:33.106Z,46.20
2018-03-14T19:29:01.390Z,46.20
2018-03-14T19:31:31.398Z,47.00
2018-03-14T19:33:59.572Z,46.30
2018-03-14T19:36:27.857Z,46.30
2018-03-14T19:38:56.141Z,46.50
2018-03-14T19:41:26.630Z,46.60
2018-03-14T19:43:54.805Z,46.50
2018-03-14T19:46:23.817Z,46.80
2018-03-14T19:48:53.539Z,46.90
2018-03-14T19:51:21.704Z,46.90
2018-03-14T19:53:49.987Z,47.50
2018-03-14T19:56:18.668Z,47.10
2018-03-14T19:58:46.948Z,47.20
2018-03-14T20:01:15.110Z,46.80
2018-03-14T20:03:43.397Z,47.30
2018-03-14T20:06:11.591Z,47.30
2018-03-14T20:08:40.802Z,47.40
2018-03-14T20:11:08.931Z,47.40
2018-03-14T20:13:37.106Z,47.40
2018-03-14T20:16:05.285Z,47.40
2018-03-14T20:18:33.452Z,48.10
2018-03-14T20:21:02.406Z,47.50
2018-03-14T20:23:30.621Z,47.50
2018-03-14T20:25:59.406Z,47.60
2018-03-14T20:28:27.803Z,47.60
2018-03-14T20:30:56.830Z,47.70
2018-03-14T20:33:25.064Z,47.60
2018-03-14T20:35:53.228Z,47.60
2018-03-14T20:38:21.513Z,47.70
2018-03-14T20:40:49.503Z,47.70
2018-03-14T20:43:19.076Z,47.70
2018-03-14T20:45:47.262Z,47.70
2018-03-14T20:48:16.354Z,47.70
2018-03-14T20:50:44.522Z,48.50
2018-03-14T20:53:12.699Z,47.80
2018-03-14T20:55:40.983Z,47.80
2018-03-14T20:58:09.257Z,47.90
2018-03-14T21:00:37.425Z,47.80
2018-03-14T21:03:05.709Z,48.30
2018-03-14T21:05:33.867Z,47.90
2018-03-14T21:08:02.155Z,47.80
2018-03-14T21:10:30.432Z,47.90
2018-03-14T21:13:05.103Z,48.00
2018-03-14T21:15:33.217Z,48.50
2018-03-14T21:18:01.396Z,48.00
2018-03-14T21:20:29.948Z,48.10
2018-03-14T21:22:58.049Z,48.10
2018-03-14T21:25:26.914Z,48.20
2018-03-14T21:27:55.109Z,48.20
2018-03-14T21:30:23.283Z,48.20
2018-03-14T21:32:51.456Z,48.20
2018-03-14T21:35:21.064Z,48.30
2018-03-14T21:37:49.249Z,48.30
2018-03-14T21:40:17.416Z,48.30
2018-03-14T21:42:45.698Z,48.40
2018-03-14T21:45:13.862Z,48.50
2018-03-14T21:47:42.147Z,48.50
2018-03-14T21:50:10.321Z,48.50
2018-03-14T21:52:38.542Z,48.20
2018-03-14T21:55:06.662Z,48.70
2018-03-14T21:57:37.265Z,48.80
2018-03-14T22:00:05.871Z,48.70
2018-03-14T22:02:34.167Z,48.80
2018-03-14T22:05:11.950Z,48.90
2018-03-14T22:07:40.234Z,48.90
2018-03-14T22:10:08.509Z,48.90
2018-03-14T22:12:37.397Z,49.10
2018-03-14T22:15:05.566Z,49.10
2018-03-14T22:17:33.635Z,49.10
2018-03-14T22:20:01.809Z,49.10
2018-03-14T22:22:36.574Z,49.20
2018-03-14T22:25:05.436Z,49.30
2018-03-14T22:27:34.110Z,49.40
2018-03-14T22:30:02.283Z,49.70
2018-03-14T22:32:30.570Z,49.40
2018-03-14T22:34:58.738Z,49.40
2018-03-14T22:37:27.020Z,49.50
2018-03-14T22:39:56.832Z,49.40
2018-03-14T22:42:24.994Z,49.40
2018-03-14T22:44:53.750Z,49.60
2018-03-14T22:47:21.856Z,49.50
2018-03-14T22:49:50.029Z,49.50
2018-03-14T22:52:18.920Z,50.00
2018-03-14T22:54:47.094Z,49.50
2018-03-14T22:57:15.377Z,49.60
2018-03-14T22:59:43.545Z,49.70
2018-03-14T23:02:11.713Z,49.90
2018-03-14T23:04:39.890Z,49.80
2018-03-14T23:07:08.071Z,49.80
2018-03-14T23:09:36.347Z,50.40
2018-03-14T23:12:05.436Z,50.00
2018-03-14T23:14:33.607Z,50.00
2018-03-14T23:17:01.780Z,50.00
2018-03-14T23:19:29.956Z,50.00
2018-03-14T23:21:58.124Z,50.10
2018-03-14T23:24:26.196Z,50.10
2018-03-14T23:26:54.370Z,50.10
2018-03-14T23:29:22.661Z,50.20
2018-03-14T23:31:51.541Z,50.30
2018-03-14T23:34:20.092Z,50.30
2018-03-14T23:36:48.297Z,50.90
2018-03-14T23:39:17.098Z,51.40
2018-03-14T23:41:46.085Z,51.70
2018-03-14T23:44:15.078Z,51.80
2018-03-14T23:46:44.830Z,52.20
2018-03-14T23:49:13.067Z,51.90
2018-03-14T23:51:41.941Z,52.20
2018-03-14T23:54:10.835Z,52.10
2018-03-14T23:56:39.008Z,52.20
2018-03-14T23:59:07.184Z,52.20
